Time;durP1;ratioP1;P1;durP2;ratioP2;P2;SDS_P1;SDS_P2;PMS_P1;PMS_P2;Temp;Humidity;BMP_temperature;BMP_pressure;BME280_temperature;BME280_humidity;BME280_pressure;Samples;Min_cycle;Max_cycle;Signal;HPM_P1;HPM_P2
2023/03/29 00:01:08;;;;;;;2.90;2.03;;;;;;;6.20;100.00;99428.59;5070589;28;20266;-79
2023/03/29 00:03:38;;;;;;;3.07;2.17;;;;;;;6.23;100.00;99418.78;5069272;28;20216;-78
2023/03/29 00:06:07;;;;;;;2.73;1.60;;;;;;;6.31;100.00;99400.06;5071305;28;20250;-78
2023/03/29 00:08:36;;;;;;;3.63;2.43;;;;;;;6.29;100.00;99397.50;5070009;28;20295;-78
2023/03/29 00:11:07;;;;;;;4.90;2.30;;;;;;;6.40;100.00;99388.28;5066282;28;20231;-78
2023/03/29 00:13:37;;;;;;;5.07;2.40;;;;;;;6.03;100.00;99387.22;5071643;28;20655;-78
2023/03/29 00:16:05;;;;;;;3.60;2.37;;;;;;;6.08;100.00;99372.13;5074886;28;20234;-78
2023/03/29 00:18:34;;;;;;;4.43;2.10;;;;;;;6.20;100.00;99373.38;5065901;28;20200;-78
2023/03/29 00:21:02;;;;;;;4.60;2.33;;;;;;;6.09;100.00;99362.47;5070461;28;20198;-78
2023/03/29 00:23:32;;;;;;;2.83;2.10;;;;;;;6.18;100.00;99362.91;5076260;28;20250;-78
2023/03/29 00:26:00;;;;;;;4.73;2.60;;;;;;;6.15;100.00;99365.66;5070203;28;20188;-79
2023/03/29 00:28:30;;;;;;;4.40;1.90;;;;;;;6.26;100.00;99354.66;5070929;28;20882;-79
2023/03/29 00:31:05;;;;;;;4.27;2.23;;;;;;;6.24;100.00;99353.88;5074047;28;20204;-79
2023/03/29 00:33:35;;;;;;;7.73;2.53;;;;;;;6.20;100.00;99353.19;5073406;28;20200;-78
2023/03/29 00:36:04;;;;;;;3.20;2.40;;;;;;;6.25;100.00;99348.56;4991442;28;20227;-78
2023/03/29 00:38:34;;;;;;;3.20;2.00;;;;;;;6.26;100.00;99344.16;4956850;28;20187;-78
2023/03/29 00:41:05;;;;;;;5.03;2.30;;;;;;;6.21;100.00;99341.72;4986087;28;20254;-79
2023/03/29 00:43:53;;;;;;;4.67;2.40;;;;;;;6.36;100.00;99345.47;4989188;28;20223;-78
2023/03/29 00:46:21;;;;;;;4.30;2.67;;;;;;;6.24;100.00;99341.59;4992807;28;20246;-79
2023/03/29 00:48:53;;;;;;;3.70;2.37;;;;;;;6.25;100.00;99338.03;4992866;28;20223;-78
2023/03/29 00:51:26;;;;;;;5.60;2.83;;;;;;;6.40;100.00;99335.69;4988972;28;20361;-78
2023/03/29 00:54:01;;;;;;;4.97;2.37;;;;;;;6.31;100.00;99335.16;4985267;28;20199;-79
2023/03/29 00:56:34;;;;;;;3.10;2.30;;;;;;;6.34;100.00;99328.91;4988197;28;20202;-78
2023/03/29 00:59:07;;;;;;;5.60;2.60;;;;;;;6.38;100.00;99313.84;4962446;28;20195;-78
2023/03/29 01:01:43;;;;;;;4.30;2.50;;;;;;;6.27;100.00;99302.03;4992134;28;20187;-78
2023/03/29 01:04:17;;;;;;;4.03;2.93;;;;;;;6.16;100.00;99308.66;4989908;28;20222;-78
2023/03/29 01:06:49;;;;;;;5.30;2.93;;;;;;;6.08;100.00;99308.13;5013059;28;20227;-78
2023/03/29 01:09:19;;;;;;;6.07;2.80;;;;;;;5.99;100.00;99302.38;5061516;28;20284;-79
2023/03/29 01:11:53;;;;;;;3.93;2.67;;;;;;;6.05;100.00;99303.88;5067231;28;20258;-78
2023/03/29 01:14:30;;;;;;;5.10;3.10;;;;;;;6.17;100.00;99303.31;5073466;28;20201;-78
2023/03/29 01:16:59;;;;;;;4.83;2.40;;;;;;;6.19;100.00;99292.75;5067388;28;20228;-78
2023/03/29 01:19:32;;;;;;;4.67;2.73;;;;;;;6.10;100.00;99293.16;5071659;28;20196;-78
2023/03/29 01:22:12;;;;;;;6.17;3.00;;;;;;;6.09;100.00;99291.47;5067782;28;20242;-78
2023/03/29 01:24:53;;;;;;;4.27;2.70;;;;;;;6.16;100.00;99290.25;5061534;28;20224;-78
2023/03/29 01:27:39;;;;;;;6.40;2.70;;;;;;;6.19;100.00;99288.34;5073404;28;20188;-78
2023/03/29 01:30:13;;;;;;;5.00;2.60;;;;;;;6.14;100.00;99277.16;5065398;28;20204;-78
2023/03/29 01:32:49;;;;;;;5.80;3.27;;;;;;;6.09;100.00;99273.91;5071043;28;20194;-79
2023/03/29 01:35:22;;;;;;;4.80;2.57;;;;;;;6.17;100.00;99263.03;5069146;28;20249;-78
2023/03/29 01:37:56;;;;;;;6.27;2.90;;;;;;;6.10;100.00;99265.09;5064688;28;20231;-78
2023/03/29 01:40:26;;;;;;;4.63;2.60;;;;;;;6.04;100.00;99262.72;5071577;28;20218;-78
2023/03/29 01:43:10;;;;;;;2.90;2.40;;;;;;;6.05;100.00;99264.44;5069000;28;20204;-78
2023/03/29 01:45:46;;;;;;;6.37;2.60;;;;;;;6.09;100.00;99252.88;5071024;28;20197;-78
2023/03/29 01:48:19;;;;;;;3.70;2.47;;;;;;;6.10;100.00;99254.56;5072673;28;20189;-78
2023/03/29 01:50:53;;;;;;;7.50;2.40;;;;;;;6.23;100.00;99260.13;5072630;28;20655;-78
2023/03/29 01:53:25;;;;;;;3.67;2.23;;;;;;;6.28;100.00;99258.16;5072522;28;20188;-78
2023/03/29 01:55:57;;;;;;;5.60;2.50;;;;;;;6.32;100.00;99259.72;5064242;28;20384;-78
2023/03/29 01:58:33;;;;;;;4.03;2.60;;;;;;;6.22;100.00;99261.06;5064824;28;20204;-78
2023/03/29 02:01:08;;;;;;;3.77;2.80;;;;;;;6.03;100.00;99253.97;5072581;28;20244;-78
2023/03/29 02:03:42;;;;;;;6.53;2.80;;;;;;;6.09;100.00;99259.91;5067950;28;20200;-78
2023/03/29 02:06:14;;;;;;;4.00;2.63;;;;;;;6.10;100.00;99246.69;5068202;28;20208;-79
2023/03/29 02:08:45;;;;;;;4.60;2.90;;;;;;;6.10;100.00;99238.81;4987404;28;20191;-78
2023/03/29 02:11:14;;;;;;;4.43;2.40;;;;;;;6.12;100.00;99236.09;4987188;28;20418;-78
2023/03/29 02:13:43;;;;;;;5.77;2.37;;;;;;;6.05;100.00;99230.25;4982007;28;20203;-78
2023/03/29 02:16:13;;;;;;;4.47;2.47;;;;;;;6.05;100.00;99232.03;4986640;28;20663;-78
2023/03/29 02:18:46;;;;;;;6.13;2.60;;;;;;;5.94;100.00;99230.72;4990889;28;20191;-78
2023/03/29 02:21:26;;;;;;;4.10;2.80;;;;;;;5.90;100.00;99223.91;4988036;28;20202;-79
2023/03/29 02:23:57;;;;;;;5.53;2.50;;;;;;;5.80;100.00;99232.22;4990620;28;20214;-78
2023/03/29 02:26:28;;;;;;;3.17;2.27;;;;;;;5.97;100.00;99235.00;5005021;28;20273;-79
2023/03/29 02:28:58;;;;;;;4.83;2.80;;;;;;;5.96;100.00;99228.88;5068114;28;20193;-79
2023/03/29 02:31:29;;;;;;;3.53;2.43;;;;;;;5.84;100.00;99224.13;5065676;28;20693;-78
2023/03/29 02:34:01;;;;;;;6.10;2.53;;;;;;;6.03;100.00;99222.44;5034053;28;20230;-79
2023/03/29 02:36:34;;;;;;;4.47;2.60;;;;;;;6.01;100.00;99223.44;5064743;28;20274;-79
2023/03/29 02:39:04;;;;;;;5.87;2.33;;;;;;;6.03;100.00;99221.59;5068498;28;20192;-78
2023/03/29 02:41:34;;;;;;;4.37;2.47;;;;;;;5.91;100.00;99222.13;5064297;28;20712;-79
2023/03/29 02:44:07;;;;;;;5.07;2.50;;;;;;;5.84;100.00;99218.88;5074703;28;20245;-78
2023/03/29 02:46:41;;;;;;;6.13;2.73;;;;;;;5.74;100.00;99218.44;5074107;28;20188;-78
2023/03/29 02:49:10;;;;;;;4.17;2.63;;;;;;;5.89;100.00;99222.19;5073407;28;20192;-79
2023/03/29 02:51:39;;;;;;;4.23;2.67;;;;;;;5.92;100.00;99218.59;5025063;28;20196;-78
2023/03/29 02:54:14;;;;;;;5.07;3.07;;;;;;;5.99;100.00;99210.38;5068887;28;20196;-78
2023/03/29 02:56:43;;;;;;;5.20;2.67;;;;;;;5.98;100.00;99207.78;5068881;28;20283;-79
2023/03/29 02:59:14;;;;;;;5.83;2.73;;;;;;;6.06;100.00;99212.69;5073660;28;20257;-79
2023/03/29 03:01:42;;;;;;;3.40;2.43;;;;;;;5.68;100.00;99197.66;5070442;28;20204;-78
2023/03/29 03:04:12;;;;;;;3.90;2.60;;;;;;;5.73;100.00;99200.09;5068721;28;20188;-78
2023/03/29 03:06:41;;;;;;;5.43;2.50;;;;;;;5.92;100.00;99201.03;5069929;28;20667;-78
2023/03/29 03:09:09;;;;;;;4.63;2.40;;;;;;;6.05;100.00;99195.22;5072701;28;20188;-78
2023/03/29 03:11:38;;;;;;;4.73;2.70;;;;;;;5.92;100.00;99185.25;5074738;28;20669;-79
2023/03/29 03:14:07;;;;;;;4.83;2.70;;;;;;;5.91;100.00;99190.59;5073346;28;20226;-79
2023/03/29 03:16:37;;;;;;;5.50;2.60;;;;;;;5.94;100.00;99186.03;5069588;28;20199;-79
2023/03/29 03:19:05;;;;;;;5.87;2.93;;;;;;;5.97;100.00;99185.88;5075604;28;20223;-79
2023/03/29 03:21:34;;;;;;;5.07;2.87;;;;;;;5.90;100.00;99176.59;5075364;28;20196;-78
2023/03/29 03:24:02;;;;;;;4.43;2.73;;;;;;;5.90;100.00;99179.22;5071035;28;20254;-78
2023/03/29 03:26:31;;;;;;;5.90;3.20;;;;;;;5.96;100.00;99183.34;5077212;28;20219;-78
2023/03/29 03:29:00;;;;;;;5.60;3.23;;;;;;;5.84;100.00;99183.84;5068679;28;20258;-78
2023/03/29 03:31:28;;;;;;;7.07;3.23;;;;;;;5.81;100.00;99184.84;5064430;28;20212;-78
2023/03/29 03:33:59;;;;;;;4.83;3.03;;;;;;;5.67;100.00;99179.34;5069791;28;20204;-78
2023/03/29 03:36:27;;;;;;;7.37;3.23;;;;;;;5.80;100.00;99177.91;5074182;28;20275;-79
2023/03/29 03:38:56;;;;;;;5.97;3.50;;;;;;;5.87;100.00;99174.06;5070966;28;20208;-78
2023/03/29 03:41:25;;;;;;;6.00;3.70;;;;;;;5.76;100.00;99178.94;5072723;28;20200;-78
2023/03/29 03:43:53;;;;;;;6.17;3.40;;;;;;;5.87;100.00;99181.09;5071175;28;20196;-79
2023/03/29 03:46:21;;;;;;;8.77;2.90;;;;;;;5.77;100.00;99190.28;5068870;28;20679;-79
2023/03/29 03:48:50;;;;;;;4.67;3.10;;;;;;;5.67;100.00;99188.06;5069397;28;20282;-78
2023/03/29 03:51:20;;;;;;;4.87;2.83;;;;;;;5.75;100.00;99182.50;5070468;28;20196;-78
2023/03/29 03:53:48;;;;;;;6.30;3.00;;;;;;;5.75;100.00;99191.22;5029381;28;20250;-80
2023/03/29 03:56:16;;;;;;;6.33;2.97;;;;;;;5.61;100.00;99190.13;5008913;28;20649;-78
2023/03/29 03:58:45;;;;;;;5.80;2.70;;;;;;;5.72;100.00;99191.38;4980746;28;20194;-79
2023/03/29 04:01:15;;;;;;;4.63;2.70;;;;;;;5.77;100.00;99188.53;5028613;28;20224;-78
2023/03/29 04:03:44;;;;;;;6.20;2.80;;;;;;;5.54;100.00;99191.31;5034920;28;20194;-78
2023/03/29 04:06:13;;;;;;;4.53;2.70;;;;;;;5.62;100.00;99190.06;5032200;28;20396;-78
2023/03/29 04:08:43;;;;;;;6.30;3.23;;;;;;;5.68;100.00;99178.41;5024924;28;20251;-78
2023/03/29 04:11:11;;;;;;;5.80;3.00;;;;;;;5.61;100.00;99169.97;5039964;28;20251;-78
2023/03/29 04:13:40;;;;;;;6.17;2.67;;;;;;;5.60;100.00;99176.16;5064353;28;20192;-79
2023/03/29 04:16:09;;;;;;;7.17;3.00;;;;;;;5.56;100.00;99184.22;5066104;28;20192;-78
2023/03/29 04:18:37;;;;;;;4.90;2.60;;;;;;;5.71;100.00;99173.03;5073360;28;20200;-79
2023/03/29 04:21:06;;;;;;;8.40;3.07;;;;;;;5.69;100.00;99170.50;4989180;28;20198;-78
2023/03/29 04:23:35;;;;;;;7.60;3.17;;;;;;;5.72;100.00;99169.50;4992019;28;20214;-78
2023/03/29 04:26:06;;;;;;;4.40;2.70;;;;;;;5.78;100.00;99170.97;4970021;28;20813;-78
2023/03/29 04:28:35;;;;;;;6.00;2.90;;;;;;;5.79;100.00;99163.06;4989858;28;20254;-78
2023/03/29 04:31:05;;;;;;;8.47;3.20;;;;;;;5.78;100.00;99174.47;4992281;28;20207;-78
2023/03/29 04:33:34;;;;;;;5.53;2.70;;;;;;;5.72;100.00;99169.50;4988103;28;20655;-78
2023/03/29 04:36:02;;;;;;;5.87;2.97;;;;;;;5.59;100.00;99178.81;4945227;28;1365454;-79
2023/03/29 04:38:34;;;;;;;6.23;2.90;;;;;;;5.62;100.00;99168.19;4992629;28;20290;-79
2023/03/29 04:41:03;;;;;;;7.63;2.70;;;;;;;5.55;100.00;99162.34;4972017;28;20230;-79
2023/03/29 04:43:33;;;;;;;7.50;2.70;;;;;;;5.53;100.00;99164.19;4939059;28;20214;-79
2023/03/29 04:46:07;;;;;;;7.13;2.53;;;;;;;5.69;100.00;99159.09;5008458;28;20225;-79
2023/03/29 04:48:36;;;;;;;3.77;2.77;;;;;;;5.61;100.00;99151.56;5009022;28;20201;-79
2023/03/29 04:51:05;;;;;;;6.07;2.90;;;;;;;5.66;100.00;99152.22;5028286;28;20190;-78
2023/03/29 04:53:33;;;;;;;4.20;2.80;;;;;;;5.70;100.00;99155.56;5029160;28;20202;-79
2023/03/29 04:56:01;;;;;;;5.87;2.97;;;;;;;5.62;100.00;99153.28;5027827;28;20649;-79
2023/03/29 04:58:30;;;;;;;6.37;3.03;;;;;;;5.79;100.00;99154.28;5027503;28;20264;-78
2023/03/29 05:01:02;;;;;;;4.57;2.93;;;;;;;5.82;100.00;99151.53;5029102;28;20189;-78
2023/03/29 05:03:31;;;;;;;8.97;2.93;;;;;;;5.82;100.00;99148.91;5027198;28;20190;-79
2023/03/29 05:06:05;;;;;;;5.17;2.57;;;;;;;5.56;100.00;99160.56;5031328;28;20228;-79
2023/03/29 05:08:38;;;;;;;5.20;2.53;;;;;;;5.68;100.00;99150.38;5030196;28;20198;-79
2023/03/29 05:11:07;;;;;;;4.60;2.80;;;;;;;5.69;100.00;99151.22;5029121;28;20194;-78
2023/03/29 05:13:35;;;;;;;3.40;2.50;;;;;;;5.55;100.00;99157.09;5067957;28;20250;-79
2023/03/29 05:16:06;;;;;;;4.97;2.33;;;;;;;5.73;100.00;99155.44;5066687;28;20200;-79
2023/03/29 05:18:35;;;;;;;4.00;2.50;;;;;;;5.72;100.00;99151.09;5063958;28;20226;-79
2023/03/29 05:21:05;;;;;;;6.33;2.40;;;;;;;5.69;100.00;99152.09;5073295;28;20196;-79
2023/03/29 05:23:34;;;;;;;4.57;2.37;;;;;;;5.71;100.00;99155.50;5070651;28;20191;-78
2023/03/29 05:26:06;;;;;;;4.87;3.10;;;;;;;5.82;100.00;99157.66;5069000;28;20379;-79
2023/03/29 05:28:35;;;;;;;5.77;2.80;;;;;;;5.80;100.00;99141.09;5053346;28;20196;-78
2023/03/29 05:31:06;;;;;;;6.60;2.80;;;;;;;5.84;100.00;99145.28;5068766;28;20253;-79
2023/03/29 05:33:35;;;;;;;4.80;2.80;;;;;;;5.94;100.00;99138.72;5069971;28;20283;-79
2023/03/29 05:36:06;;;;;;;4.30;3.30;;;;;;;5.86;100.00;99130.28;5066514;28;20224;-79
2023/03/29 05:38:35;;;;;;;5.07;2.80;;;;;;;5.88;100.00;99123.19;5038704;28;20268;-78
2023/03/29 05:41:05;;;;;;;4.90;2.43;;;;;;;5.86;100.00;99127.66;5060426;28;20200;-78
2023/03/29 05:43:33;;;;;;;4.63;2.47;;;;;;;5.91;100.00;99124.88;5064870;28;20655;-79
2023/03/29 05:46:02;;;;;;;6.93;2.80;;;;;;;5.78;100.00;99131.56;5068608;28;20220;-78
2023/03/29 05:48:32;;;;;;;4.60;2.83;;;;;;;5.87;100.00;99128.53;5069980;28;20203;-78
2023/03/29 05:51:00;;;;;;;4.57;2.50;;;;;;;5.90;100.00;99126.66;5072673;28;20301;-78
2023/03/29 05:53:32;;;;;;;4.77;2.80;;;;;;;6.09;100.00;99128.44;5069672;28;20276;-79
2023/03/29 05:56:01;;;;;;;5.10;2.93;;;;;;;5.94;100.00;99127.34;5062782;28;20729;-78
2023/03/29 05:58:29;;;;;;;4.63;2.80;;;;;;;5.98;100.00;99123.66;5067966;28;20188;-78
2023/03/29 06:00:59;;;;;;;5.73;3.40;;;;;;;5.98;100.00;99128.91;5072684;28;20266;-78
2023/03/29 06:03:28;;;;;;;7.43;3.40;;;;;;;5.97;100.00;99128.06;5068790;28;20200;-79
2023/03/29 06:06:01;;;;;;;5.10;2.80;;;;;;;6.02;100.00;99130.50;5069489;28;20219;-79
2023/03/29 06:08:30;;;;;;;4.10;2.50;;;;;;;6.05;100.00;99132.97;5067981;28;20243;-78
2023/03/29 06:11:00;;;;;;;3.93;2.40;;;;;;;6.11;100.00;99134.47;5066769;28;20200;-79
2023/03/29 06:13:36;;;;;;;9.47;2.80;;;;;;;6.13;100.00;99130.84;5069299;28;20224;-79
2023/03/29 06:16:04;;;;;;;5.23;2.80;;;;;;;6.24;100.00;99136.44;5034077;28;20200;-79
2023/03/29 06:18:34;;;;;;;5.23;2.93;;;;;;;6.19;100.00;99133.19;4983054;28;20198;-79
2023/03/29 06:21:04;;;;;;;4.33;2.70;;;;;;;6.20;100.00;99124.38;4987733;28;20191;-78
2023/03/29 06:23:32;;;;;;;3.70;2.30;;;;;;;6.23;100.00;99129.50;4988381;28;20265;-79
2023/03/29 06:26:01;;;;;;;4.03;2.77;;;;;;;6.15;100.00;99131.63;4988117;28;20269;-79
2023/03/29 06:28:29;;;;;;;5.70;2.60;;;;;;;6.24;100.00;99136.44;4989338;28;20233;-78
2023/03/29 06:31:00;;;;;;;5.73;2.63;;;;;;;6.18;100.00;99128.03;4986869;28;20199;-79
2023/03/29 06:33:32;;;;;;;5.93;2.63;;;;;;;6.17;100.00;99126.28;4984482;28;20203;-79
2023/03/29 06:36:04;;;;;;;5.80;3.00;;;;;;;6.16;100.00;99129.84;5000292;28;20235;-78
2023/03/29 06:38:32;;;;;;;6.70;2.97;;;;;;;6.08;100.00;99140.75;5072211;28;20250;-78
2023/03/29 06:41:02;;;;;;;4.47;2.90;;;;;;;6.10;100.00;99141.50;5063094;28;20222;-78
2023/03/29 06:43:33;;;;;;;4.10;2.70;;;;;;;6.34;100.00;99141.28;5069323;28;20209;-78
2023/03/29 06:46:02;;;;;;;5.70;3.53;;;;;;;6.21;100.00;99149.75;5065723;28;20234;-78
2023/03/29 06:48:31;;;;;;;5.23;3.10;;;;;;;6.04;100.00;99152.31;5062735;28;20258;-78
2023/03/29 06:50:59;;;;;;;4.00;2.97;;;;;;;6.22;100.00;99153.22;5067263;28;20720;-79
2023/03/29 06:53:30;;;;;;;4.23;3.17;;;;;;;6.34;100.00;99157.06;5067251;28;20215;-78
2023/03/29 06:55:58;;;;;;;6.20;3.17;;;;;;;6.35;100.00;99162.25;5063863;28;20192;-78
2023/03/29 06:58:27;;;;;;;5.40;4.10;;;;;;;6.39;100.00;99162.97;5061449;28;20199;-78
2023/03/29 07:01:00;;;;;;;8.40;4.83;;;;;;;6.50;100.00;99158.06;5063496;28;20196;-78
2023/03/29 07:03:30;;;;;;;8.50;5.03;;;;;;;6.46;100.00;99152.06;5065164;28;20197;-78
2023/03/29 07:06:02;;;;;;;7.07;5.00;;;;;;;6.49;100.00;99161.63;5065713;28;20196;-79
2023/03/29 07:08:34;;;;;;;7.20;4.60;;;;;;;6.47;100.00;99161.69;5066595;28;20216;-78
2023/03/29 07:11:02;;;;;;;7.67;4.40;;;;;;;6.55;100.00;99154.25;5063046;28;20193;-78
2023/03/29 07:13:31;;;;;;;7.37;3.60;;;;;;;6.72;100.00;99164.00;5060754;28;20671;-79
2023/03/29 07:16:00;;;;;;;8.13;4.10;;;;;;;6.78;100.00;99165.50;5065338;28;20307;-78
2023/03/29 07:18:29;;;;;;;6.57;4.07;;;;;;;6.81;100.00;99163.53;5061859;28;20192;-79
2023/03/29 07:20:57;;;;;;;4.47;3.40;;;;;;;6.80;100.00;99163.63;5063275;28;20196;-78
2023/03/29 07:23:25;;;;;;;5.40;3.67;;;;;;;6.96;100.00;99167.22;5066012;28;20250;-79
2023/03/29 07:25:55;;;;;;;4.97;3.60;;;;;;;7.03;100.00;99171.25;5064281;28;20210;-79
2023/03/29 07:28:23;;;;;;;6.73;3.60;;;;;;;7.06;100.00;99171.13;5072289;28;20226;-78
2023/03/29 07:30:52;;;;;;;3.97;3.27;;;;;;;7.26;100.00;99180.66;5075425;28;20199;-78
2023/03/29 07:33:20;;;;;;;4.83;3.40;;;;;;;7.04;100.00;99180.84;5075422;28;20228;-79
2023/03/29 07:35:49;;;;;;;6.33;3.53;;;;;;;7.16;100.00;99169.72;5077391;28;20342;-78
2023/03/29 07:38:17;;;;;;;5.50;3.63;;;;;;;7.15;100.00;99175.94;5066981;28;20382;-79
2023/03/29 07:40:45;;;;;;;4.57;3.63;;;;;;;7.30;100.00;99198.00;5067624;28;20200;-79
2023/03/29 07:43:17;;;;;;;5.90;3.47;;;;;;;7.38;100.00;99189.72;5067029;28;20226;-79
2023/03/29 07:45:45;;;;;;;5.37;3.53;;;;;;;7.42;100.00;99181.56;5066008;28;20208;-79
2023/03/29 07:48:14;;;;;;;6.90;3.60;;;;;;;7.44;100.00;99187.63;5074970;28;20248;-79
2023/03/29 07:50:43;;;;;;;6.33;4.10;;;;;;;7.48;100.00;99190.94;5066413;28;20228;-79
2023/03/29 07:53:11;;;;;;;7.20;4.00;;;;;;;7.63;100.00;99194.59;5066473;28;20249;-79
2023/03/29 07:55:45;;;;;;;8.27;4.07;;;;;;;7.47;100.00;99195.38;5067349;28;20192;-79
2023/03/29 07:58:17;;;;;;;4.80;3.80;;;;;;;7.67;100.00;99194.34;5069233;28;20669;-78
2023/03/29 08:00:47;;;;;;;9.20;3.80;;;;;;;7.67;100.00;99197.00;5069440;28;20188;-79
2023/03/29 08:03:16;;;;;;;7.37;4.20;;;;;;;7.78;100.00;99206.97;5063037;28;20200;-79
2023/03/29 08:05:45;;;;;;;5.67;3.80;;;;;;;7.80;100.00;99197.19;5063761;28;20200;-79
2023/03/29 08:08:14;;;;;;;5.30;3.80;;;;;;;7.90;100.00;99195.78;5066391;28;20266;-79
2023/03/29 08:10:43;;;;;;;8.60;3.80;;;;;;;7.70;100.00;99195.97;5073624;28;20200;-79
2023/03/29 08:13:12;;;;;;;5.60;4.00;;;;;;;7.73;100.00;99191.41;5071699;28;20229;-79
2023/03/29 08:15:45;;;;;;;7.53;4.30;;;;;;;7.85;100.00;99189.91;5068737;28;20651;-79
2023/03/29 08:18:13;;;;;;;6.47;4.17;;;;;;;7.75;100.00;99184.25;5068775;28;20238;-78
2023/03/29 08:20:42;;;;;;;6.40;4.00;;;;;;;7.98;100.00;99179.56;5063817;28;20200;-79
2023/03/29 08:23:10;;;;;;;5.80;4.00;;;;;;;8.05;100.00;99180.94;5065043;28;20212;-78
2023/03/29 08:25:38;;;;;;;5.10;3.67;;;;;;;8.17;100.00;99172.38;5068859;28;20205;-79
2023/03/29 08:28:07;;;;;;;7.33;4.10;;;;;;;8.07;100.00;99176.44;5071872;28;20227;-80
2023/03/29 08:30:37;;;;;;;5.53;3.77;;;;;;;8.21;100.00;99173.91;5072845;28;20192;-78
2023/03/29 08:33:07;;;;;;;5.73;4.10;;;;;;;8.25;100.00;99169.31;5068011;28;20200;-79
2023/03/29 08:35:36;;;;;;;6.37;4.40;;;;;;;8.23;100.00;99166.78;5075911;28;20223;-78
2023/03/29 08:38:04;;;;;;;5.93;4.40;;;;;;;8.42;100.00;99155.25;5076051;28;20223;-79
2023/03/29 08:40:33;;;;;;;8.17;4.30;;;;;;;8.39;100.00;99160.66;5069738;28;20192;-78
2023/03/29 08:43:28;;;;;;;5.43;4.37;;;;;;;8.33;100.00;99169.75;5068269;28;20204;-78
2023/03/29 08:46:07;;;;;;;9.63;4.50;;;;;;;8.34;100.00;99160.91;5069767;28;20223;-78
2023/03/29 08:48:41;;;;;;;7.73;4.80;;;;;;;8.35;100.00;99161.78;5064635;28;20223;-79
2023/03/29 08:51:17;;;;;;;7.77;5.30;;;;;;;8.54;100.00;99154.56;5073734;28;20260;-79
2023/03/29 08:53:52;;;;;;;5.57;4.13;;;;;;;8.46;100.00;99159.41;5071127;28;20199;-79
2023/03/29 08:56:25;;;;;;;7.10;4.40;;;;;;;8.57;100.00;99167.56;5064542;28;20192;-79
2023/03/29 08:58:54;;;;;;;6.53;5.10;;;;;;;8.43;100.00;99165.72;5068810;28;20192;-79
2023/03/29 09:01:24;;;;;;;8.03;5.30;;;;;;;8.41;100.00;99164.94;5070281;28;20239;-78
2023/03/29 09:04:03;;;;;;;6.13;5.07;;;;;;;8.56;100.00;99161.44;5070591;28;20256;-79
2023/03/29 09:06:32;;;;;;;6.67;4.53;;;;;;;8.70;100.00;99160.69;5048569;28;20396;-79
2023/03/29 09:09:01;;;;;;;6.73;4.90;;;;;;;8.81;100.00;99152.16;5048676;28;20726;-79
2023/03/29 09:11:45;;;;;;;7.70;5.10;;;;;;;8.76;100.00;99148.91;5049986;28;20797;-79
2023/03/29 09:14:31;;;;;;;7.80;4.67;;;;;;;8.75;100.00;99157.78;5047636;28;20216;-79
2023/03/29 09:17:05;;;;;;;9.77;5.63;;;;;;;8.48;100.00;99154.88;5048656;28;20262;-79
2023/03/29 09:19:42;;;;;;;7.40;4.83;;;;;;;8.60;100.00;99170.06;5048584;28;20196;-78
2023/03/29 09:22:17;;;;;;;5.83;4.70;;;;;;;8.64;100.00;99155.75;5047647;28;20629;-78
2023/03/29 09:25:02;;;;;;;7.70;4.97;;;;;;;8.68;100.00;99151.97;4998085;28;20217;-79
2023/03/29 09:27:35;;;;;;;7.03;5.00;;;;;;;8.64;100.00;99161.03;5007349;28;20202;-78
2023/03/29 09:30:15;;;;;;;24.20;14.43;;;;;;;8.79;100.00;99177.81;5008840;28;20202;-78
2023/03/29 09:32:52;;;;;;;11.97;5.77;;;;;;;8.77;100.00;99172.59;5009029;28;20289;-78
2023/03/29 09:35:30;;;;;;;8.70;5.47;;;;;;;8.81;100.00;99158.28;5005841;28;20248;-79
2023/03/29 09:37:59;;;;;;;6.57;5.17;;;;;;;8.75;100.00;99161.25;5006800;28;20207;-79
2023/03/29 09:40:34;;;;;;;8.90;5.20;;;;;;;8.74;100.00;99170.13;5008073;28;20335;-78
2023/03/29 09:43:06;;;;;;;7.70;5.27;;;;;;;8.83;100.00;99155.56;5002555;28;20204;-78
2023/03/29 09:45:36;;;;;;;7.80;5.07;;;;;;;8.88;100.00;99153.53;5072680;28;20224;-79
2023/03/29 09:48:12;;;;;;;8.50;5.23;;;;;;;9.11;100.00;99150.38;5072253;28;20224;-78
2023/03/29 09:50:45;;;;;;;7.90;5.53;;;;;;;9.10;100.00;99140.75;5067560;28;20257;-79
2023/03/29 09:53:15;;;;;;;10.13;5.57;;;;;;;9.09;100.00;99133.78;5072644;28;20197;-79
2023/03/29 09:55:45;;;;;;;7.50;5.13;;;;;;;9.28;100.00;99127.41;5067107;28;20338;-80
2023/03/29 09:58:21;;;;;;;7.47;4.83;;;;;;;9.36;100.00;99131.31;5070532;28;20238;-79
2023/03/29 10:00:50;;;;;;;7.33;5.10;;;;;;;9.59;100.00;99131.72;5062498;28;20204;-79
2023/03/29 10:03:20;;;;;;;6.43;4.13;;;;;;;9.82;100.00;99130.31;5070199;28;20234;-79
2023/03/29 10:05:52;;;;;;;7.23;5.03;;;;;;;9.91;100.00;99135.88;5019177;28;20204;-79
2023/03/29 10:08:25;;;;;;;9.67;4.80;;;;;;;10.07;100.00;99138.44;5067937;28;20319;-79
2023/03/29 10:10:54;;;;;;;9.30;5.03;;;;;;;10.18;100.00;99135.97;5063334;28;20654;-79
2023/03/29 10:13:29;;;;;;;4.90;4.03;;;;;;;9.89;100.00;99135.13;5067727;28;20204;-79
2023/03/29 10:16:02;;;;;;;7.00;4.30;;;;;;;10.11;100.00;99141.72;5069675;28;20189;-79
2023/03/29 10:18:31;;;;;;;8.70;4.40;;;;;;;10.23;100.00;99135.69;5070400;28;20229;-79
2023/03/29 10:21:04;;;;;;;6.60;4.30;;;;;;;10.34;100.00;99127.94;5072470;28;20262;-79
2023/03/29 10:23:34;;;;;;;5.80;3.97;;;;;;;10.39;100.00;99122.34;5066104;28;20246;-79
2023/03/29 10:26:04;;;;;;;7.70;4.60;;;;;;;10.50;100.00;99125.16;5068077;28;20200;-79
2023/03/29 10:28:35;;;;;;;7.30;4.23;;;;;;;10.77;100.00;99119.88;5072640;28;20208;-79
2023/03/29 10:31:06;;;;;;;6.07;3.93;;;;;;;10.73;100.00;99108.63;5066633;28;20200;-79
2023/03/29 10:33:36;;;;;;;7.57;4.33;;;;;;;10.78;100.00;99105.69;5025602;28;20293;-79
2023/03/29 10:36:07;;;;;;;7.67;4.07;;;;;;;10.87;100.00;99113.88;5029940;28;20288;-79
2023/03/29 10:38:38;;;;;;;6.37;4.20;;;;;;;11.18;100.00;99110.03;5023927;28;20240;-79
2023/03/29 10:41:11;;;;;;;5.77;4.07;;;;;;;11.32;100.00;99113.56;5027451;28;20205;-79
2023/03/29 10:43:44;;;;;;;6.50;4.43;;;;;;;11.33;100.00;99117.91;5028347;28;20282;-79
2023/03/29 10:46:21;;;;;;;6.20;4.30;;;;;;;11.43;100.00;99119.81;5030328;28;20684;-78
2023/03/29 10:48:56;;;;;;;7.30;4.47;;;;;;;11.18;100.00;99117.13;5027861;28;20304;-79
2023/03/29 10:51:30;;;;;;;6.60;3.77;;;;;;;11.34;100.00;99104.53;5044239;28;20246;-79
2023/03/29 10:53:59;;;;;;;8.27;3.70;;;;;;;11.46;100.00;99108.16;5068193;28;20200;-79
2023/03/29 10:56:38;;;;;;;9.30;4.37;;;;;;;11.52;100.00;99102.44;5068165;28;20196;-79
2023/03/29 10:59:40;;;;;;;7.77;4.57;;;;;;;11.50;100.00;99106.16;5069317;28;20224;-79
2023/03/29 11:03:01;;;;;;;7.43;4.23;;;;;;;11.59;100.00;99090.47;5029768;28;20197;-79
2023/03/29 11:05:40;;;;;;;10.57;4.20;;;;;;;11.50;100.00;99090.25;5076750;28;20188;-78
2023/03/29 11:08:27;;;;;;;6.97;4.03;;;;;;;11.64;100.00;99106.88;5072267;28;20242;-80
2023/03/29 11:11:10;;;;;;;7.17;4.70;;;;;;;12.00;100.00;99113.28;5071537;28;20533;-78
2023/03/29 11:13:48;;;;;;;6.60;4.70;;;;;;;12.17;100.00;99112.09;5066125;28;20222;-80
2023/03/29 11:16:29;;;;;;;8.00;4.87;;;;;;;12.26;100.00;99112.28;5070191;28;20203;-79
2023/03/29 11:19:23;;;;;;;6.37;4.70;;;;;;;12.15;100.00;99108.66;5070680;28;20219;-79
2023/03/29 11:21:59;;;;;;;7.00;5.00;;;;;;;11.79;100.00;99106.78;5071700;28;20250;-80
2023/03/29 11:24:47;;;;;;;7.77;5.23;;;;;;;11.95;100.00;99105.63;5070154;28;20222;-80
2023/03/29 11:27:28;;;;;;;8.80;5.13;;;;;;;12.12;100.00;99099.13;5072626;28;20250;-80
2023/03/29 11:30:09;;;;;;;9.00;5.17;;;;;;;12.26;100.00;99101.66;5067095;28;20220;-79
2023/03/29 11:32:48;;;;;;;6.83;4.90;;;;;;;12.55;100.00;99091.56;5075544;28;20200;-79
2023/03/29 11:35:33;;;;;;;9.63;5.50;;;;;;;12.33;100.00;99094.94;5071124;28;20236;-79
2023/03/29 11:38:09;;;;;;;6.87;5.13;;;;;;;12.40;100.00;99086.53;5075321;28;20192;-79
2023/03/29 11:41:01;;;;;;;7.50;5.10;;;;;;;12.37;100.00;99092.91;5015904;28;20289;-79
2023/03/29 11:43:35;;;;;;;8.13;5.10;;;;;;;12.45;100.00;99085.25;5073111;28;20652;-79
2023/03/29 11:46:12;;;;;;;7.77;4.47;;;;;;;12.57;100.00;99083.50;5075252;28;20229;-79
2023/03/29 11:48:49;;;;;;;10.80;4.53;;;;;;;12.54;100.00;99073.91;5071911;28;20242;-79
2023/03/29 11:51:23;;;;;;;6.80;4.73;;;;;;;12.67;100.00;99079.19;5075260;28;20248;-80
2023/03/29 11:53:59;;;;;;;7.57;4.90;;;;;;;12.33;100.00;99086.13;5068644;28;20200;-79